sensor_id;sensor_type;location;lat;lon;timestamp;P1;durP1;ratioP1;P2;durP2;ratioP2
17566;SDS011;8901;52.088;5.084;2022-08-19T00:05:06;10.20;;;9.13;;
17566;SDS011;8901;52.088;5.084;2022-08-19T00:29:47;8.27;;;7.68;;
17566;SDS011;8901;52.088;5.084;2022-08-19T00:35:35;9.27;;;8.57;;
17566;SDS011;8901;52.088;5.084;2022-08-19T00:41:25;10.57;;;9.60;;
17566;SDS011;8901;52.088;5.084;2022-08-19T00:47:22;13.55;;;12.48;;
17566;SDS011;8901;52.088;5.084;2022-08-19T00:56:32;14.45;;;13.05;;
17566;SDS011;8901;52.088;5.084;2022-08-19T01:05:45;17.48;;;15.88;;
17566;SDS011;8901;52.088;5.084;2022-08-19T01:15:11;19.67;;;17.90;;
17566;SDS011;8901;52.088;5.084;2022-08-19T01:35:32;22.45;;;20.33;;
17566;SDS011;8901;52.088;5.084;2022-08-19T01:41:26;22.08;;;19.77;;
17566;SDS011;8901;52.088;5.084;2022-08-19T01:50:47;20.88;;;19.05;;
17566;SDS011;8901;52.088;5.084;2022-08-19T01:56:35;19.88;;;17.98;;
17566;SDS011;8901;52.088;5.084;2022-08-19T02:02:25;19.27;;;17.48;;
17566;SDS011;8901;52.088;5.084;2022-08-19T02:08:15;20.50;;;18.70;;
17566;SDS011;8901;52.088;5.084;2022-08-19T02:17:26;19.80;;;18.00;;
17566;SDS011;8901;52.088;5.084;2022-08-19T02:23:17;17.98;;;16.38;;
17566;SDS011;8901;52.088;5.084;2022-08-19T02:42:56;16.52;;;14.95;;
17566;SDS011;8901;52.088;5.084;2022-08-19T02:48:45;18.42;;;16.58;;
17566;SDS011;8901;52.088;5.084;2022-08-19T02:54:34;17.98;;;16.17;;
17566;SDS011;8901;52.088;5.084;2022-08-19T03:04:03;16.63;;;14.55;;
17566;SDS011;8901;52.088;5.084;2022-08-19T03:16:10;19.95;;;17.60;;
17566;SDS011;8901;52.088;5.084;2022-08-19T03:22:01;19.42;;;17.55;;
17566;SDS011;8901;52.088;5.084;2022-08-19T03:27:51;12.32;;;11.23;;
17566;SDS011;8901;52.088;5.084;2022-08-19T03:33:40;17.27;;;15.52;;
17566;SDS011;8901;52.088;5.084;2022-08-19T03:39:30;16.85;;;15.25;;
17566;SDS011;8901;52.088;5.084;2022-08-19T03:45:19;19.65;;;17.80;;
17566;SDS011;8901;52.088;5.084;2022-08-19T03:51:08;16.60;;;15.00;;
17566;SDS011;8901;52.088;5.084;2022-08-19T03:57:06;19.05;;;17.17;;
17566;SDS011;8901;52.088;5.084;2022-08-19T04:02:55;21.25;;;17.45;;
17566;SDS011;8901;52.088;5.084;2022-08-19T04:12:07;15.50;;;14.05;;
17566;SDS011;8901;52.088;5.084;2022-08-19T04:17:56;21.60;;;19.42;;
17566;SDS011;8901;52.088;5.084;2022-08-19T04:23:45;23.50;;;19.60;;
17566;SDS011;8901;52.088;5.084;2022-08-19T04:29:35;22.88;;;20.55;;
17566;SDS011;8901;52.088;5.084;2022-08-19T04:50:12;21.75;;;19.48;;
17566;SDS011;8901;52.088;5.084;2022-08-19T04:56:31;23.70;;;21.38;;
17566;SDS011;8901;52.088;5.084;2022-08-19T05:05:44;23.15;;;20.40;;
17566;SDS011;8901;52.088;5.084;2022-08-19T05:11:36;21.35;;;19.05;;
17566;SDS011;8901;52.088;5.084;2022-08-19T05:17:26;19.13;;;17.17;;
17566;SDS011;8901;52.088;5.084;2022-08-19T05:23:17;19.20;;;16.63;;
17566;SDS011;8901;52.088;5.084;2022-08-19T05:29:06;26.77;;;23.00;;
17566;SDS011;8901;52.088;5.084;2022-08-19T05:34:55;22.77;;;19.58;;
17566;SDS011;8901;52.088;5.084;2022-08-19T05:40:45;28.67;;;24.33;;
17566;SDS011;8901;52.088;5.084;2022-08-19T05:50:11;22.70;;;20.20;;
17566;SDS011;8901;52.088;5.084;2022-08-19T05:56:04;28.98;;;23.00;;
17566;SDS011;8901;52.088;5.084;2022-08-19T06:01:54;30.70;;;26.20;;
17566;SDS011;8901;52.088;5.084;2022-08-19T06:07:43;30.23;;;22.40;;
17566;SDS011;8901;52.088;5.084;2022-08-19T06:13:34;36.25;;;27.10;;
17566;SDS011;8901;52.088;5.084;2022-08-19T06:19:23;39.70;;;29.13;;
17566;SDS011;8901;52.088;5.084;2022-08-19T06:28:35;35.55;;;24.55;;
17566;SDS011;8901;52.088;5.084;2022-08-19T06:34:33;36.05;;;24.40;;
17566;SDS011;8901;52.088;5.084;2022-08-19T06:50:09;41.63;;;29.90;;
17566;SDS011;8901;52.088;5.084;2022-08-19T06:55:58;38.22;;;27.92;;
17566;SDS011;8901;52.088;5.084;2022-08-19T07:01:49;48.15;;;37.13;;
17566;SDS011;8901;52.088;5.084;2022-08-19T07:07:42;42.35;;;31.27;;
17566;SDS011;8901;52.088;5.084;2022-08-19T07:13:30;36.95;;;28.73;;
17566;SDS011;8901;52.088;5.084;2022-08-19T07:19:23;39.17;;;28.55;;
17566;SDS011;8901;52.088;5.084;2022-08-19T07:25:15;32.55;;;26.23;;
17566;SDS011;8901;52.088;5.084;2022-08-19T07:31:05;37.92;;;29.08;;
17566;SDS011;8901;52.088;5.084;2022-08-19T07:36:55;45.58;;;33.90;;
17566;SDS011;8901;52.088;5.084;2022-08-19T07:42:45;44.17;;;33.08;;
17566;SDS011;8901;52.088;5.084;2022-08-19T07:52:22;39.15;;;30.10;;
17566;SDS011;8901;52.088;5.084;2022-08-19T07:58:13;41.50;;;30.67;;
17566;SDS011;8901;52.088;5.084;2022-08-19T08:04:38;38.47;;;29.80;;
17566;SDS011;8901;52.088;5.084;2022-08-19T08:17:07;35.08;;;26.08;;
17566;SDS011;8901;52.088;5.084;2022-08-19T08:22:58;38.03;;;29.27;;
17566;SDS011;8901;52.088;5.084;2022-08-19T08:35:55;31.83;;;26.08;;
17566;SDS011;8901;52.088;5.084;2022-08-19T08:41:46;32.47;;;22.52;;
17566;SDS011;8901;52.088;5.084;2022-08-19T08:47:40;24.92;;;22.20;;
17566;SDS011;8901;52.088;5.084;2022-08-19T08:53:33;29.20;;;21.13;;
17566;SDS011;8901;52.088;5.084;2022-08-19T08:59:26;27.10;;;21.30;;
17566;SDS011;8901;52.088;5.084;2022-08-19T09:05:19;29.27;;;22.23;;
17566;SDS011;8901;52.088;5.084;2022-08-19T09:11:10;28.08;;;22.30;;
17566;SDS011;8901;52.088;5.084;2022-08-19T09:17:24;24.45;;;20.55;;
17566;SDS011;8901;52.088;5.084;2022-08-19T09:26:39;29.10;;;23.67;;
17566;SDS011;8901;52.088;5.084;2022-08-19T09:32:31;27.17;;;22.92;;
17566;SDS011;8901;52.088;5.084;2022-08-19T09:41:42;22.40;;;19.40;;
17566;SDS011;8901;52.088;5.084;2022-08-19T09:47:32;27.85;;;22.88;;
17566;SDS011;8901;52.088;5.084;2022-08-19T09:56:44;24.33;;;18.77;;
17566;SDS011;8901;52.088;5.084;2022-08-19T10:02:35;21.73;;;17.40;;
17566;SDS011;8901;52.088;5.084;2022-08-19T10:11:46;28.23;;;21.40;;
17566;SDS011;8901;52.088;5.084;2022-08-19T10:17:38;24.00;;;17.40;;
17566;SDS011;8901;52.088;5.084;2022-08-19T10:20:05;18.70;;;16.23;;
17566;SDS011;8901;52.088;5.084;2022-08-19T10:22:32;21.42;;;17.02;;
17566;SDS011;8901;52.088;5.084;2022-08-19T10:25:00;20.02;;;17.30;;
17566;SDS011;8901;52.088;5.084;2022-08-19T10:27:27;22.40;;;16.20;;
17566;SDS011;8901;52.088;5.084;2022-08-19T10:29:55;24.35;;;16.60;;
17566;SDS011;8901;52.088;5.084;2022-08-19T10:32:22;18.15;;;16.30;;
17566;SDS011;8901;52.088;5.084;2022-08-19T10:34:51;27.27;;;19.83;;
17566;SDS011;8901;52.088;5.084;2022-08-19T10:37:18;27.27;;;22.17;;
17566;SDS011;8901;52.088;5.084;2022-08-19T10:39:46;28.92;;;20.80;;
17566;SDS011;8901;52.088;5.084;2022-08-19T10:42:13;30.20;;;21.90;;
17566;SDS011;8901;52.088;5.084;2022-08-19T10:44:44;25.95;;;19.33;;
17566;SDS011;8901;52.088;5.084;2022-08-19T10:47:12;27.05;;;22.25;;
17566;SDS011;8901;52.088;5.084;2022-08-19T10:49:39;23.50;;;19.08;;
17566;SDS011;8901;52.088;5.084;2022-08-19T10:52:21;23.27;;;19.92;;
17566;SDS011;8901;52.088;5.084;2022-08-19T10:55:00;25.88;;;19.90;;
17566;SDS011;8901;52.088;5.084;2022-08-19T10:57:45;25.73;;;21.45;;
17566;SDS011;8901;52.088;5.084;2022-08-19T11:00:12;23.95;;;18.50;;
17566;SDS011;8901;52.088;5.084;2022-08-19T11:02:39;25.17;;;20.70;;
17566;SDS011;8901;52.088;5.084;2022-08-19T11:05:07;23.85;;;17.27;;
17566;SDS011;8901;52.088;5.084;2022-08-19T11:07:37;22.42;;;18.58;;
17566;SDS011;8901;52.088;5.084;2022-08-19T11:10:04;30.52;;;19.02;;
17566;SDS011;8901;52.088;5.084;2022-08-19T11:12:32;27.25;;;21.52;;
17566;SDS011;8901;52.088;5.084;2022-08-19T11:14:59;22.50;;;17.30;;
17566;SDS011;8901;52.088;5.084;2022-08-19T11:17:26;23.08;;;19.45;;
17566;SDS011;8901;52.088;5.084;2022-08-19T11:19:56;17.55;;;15.38;;
17566;SDS011;8901;52.088;5.084;2022-08-19T11:22:23;18.83;;;13.98;;
17566;SDS011;8901;52.088;5.084;2022-08-19T11:24:53;14.85;;;13.13;;
17566;SDS011;8901;52.088;5.084;2022-08-19T11:27:20;14.32;;;12.38;;
17566;SDS011;8901;52.088;5.084;2022-08-19T11:29:47;16.60;;;13.68;;
17566;SDS011;8901;52.088;5.084;2022-08-19T11:32:14;13.77;;;12.35;;
17566;SDS011;8901;52.088;5.084;2022-08-19T11:34:41;14.13;;;12.82;;
17566;SDS011;8901;52.088;5.084;2022-08-19T11:37:08;15.35;;;13.80;;
17566;SDS011;8901;52.088;5.084;2022-08-19T11:39:35;19.08;;;13.57;;
17566;SDS011;8901;52.088;5.084;2022-08-19T11:42:04;15.45;;;12.25;;
17566;SDS011;8901;52.088;5.084;2022-08-19T11:44:53;13.27;;;11.70;;
17566;SDS011;8901;52.088;5.084;2022-08-19T11:47:20;19.70;;;10.65;;
17566;SDS011;8901;52.088;5.084;2022-08-19T11:49:47;13.43;;;10.52;;
17566;SDS011;8901;52.088;5.084;2022-08-19T11:52:14;11.65;;;9.25;;
17566;SDS011;8901;52.088;5.084;2022-08-19T11:54:41;15.10;;;9.18;;
17566;SDS011;8901;52.088;5.084;2022-08-19T11:57:09;12.50;;;9.18;;
17566;SDS011;8901;52.088;5.084;2022-08-19T11:59:36;13.23;;;8.77;;
17566;SDS011;8901;52.088;5.084;2022-08-19T12:02:10;11.93;;;8.48;;
17566;SDS011;8901;52.088;5.084;2022-08-19T12:04:38;11.55;;;8.88;;
17566;SDS011;8901;52.088;5.084;2022-08-19T12:07:05;10.98;;;8.85;;
17566;SDS011;8901;52.088;5.084;2022-08-19T12:09:32;11.02;;;8.52;;
17566;SDS011;8901;52.088;5.084;2022-08-19T12:12:00;12.85;;;8.52;;
17566;SDS011;8901;52.088;5.084;2022-08-19T12:14:28;16.17;;;9.88;;
17566;SDS011;8901;52.088;5.084;2022-08-19T12:16:56;10.52;;;9.43;;
17566;SDS011;8901;52.088;5.084;2022-08-19T12:19:23;11.82;;;8.25;;
17566;SDS011;8901;52.088;5.084;2022-08-19T12:21:51;10.90;;;8.27;;
17566;SDS011;8901;52.088;5.084;2022-08-19T12:24:20;8.70;;;7.68;;
17566;SDS011;8901;52.088;5.084;2022-08-19T12:26:48;8.68;;;7.80;;
17566;SDS011;8901;52.088;5.084;2022-08-19T12:29:15;8.43;;;7.43;;
17566;SDS011;8901;52.088;5.084;2022-08-19T12:31:43;13.75;;;7.35;;
17566;SDS011;8901;52.088;5.084;2022-08-19T12:34:10;8.13;;;7.32;;
17566;SDS011;8901;52.088;5.084;2022-08-19T12:36:38;10.20;;;7.20;;
17566;SDS011;8901;52.088;5.084;2022-08-19T12:39:04;14.50;;;7.70;;
17566;SDS011;8901;52.088;5.084;2022-08-19T12:41:33;8.52;;;7.05;;
17566;SDS011;8901;52.088;5.084;2022-08-19T12:44:00;9.25;;;7.47;;
17566;SDS011;8901;52.088;5.084;2022-08-19T12:46:27;12.38;;;6.95;;
17566;SDS011;8901;52.088;5.084;2022-08-19T12:48:55;10.73;;;6.68;;
17566;SDS011;8901;52.088;5.084;2022-08-19T12:51:22;7.70;;;5.38;;
17566;SDS011;8901;52.088;5.084;2022-08-19T12:53:50;11.73;;;6.72;;
17566;SDS011;8901;52.088;5.084;2022-08-19T12:56:17;6.95;;;5.47;;
17566;SDS011;8901;52.088;5.084;2022-08-19T12:58:44;8.02;;;5.65;;
17566;SDS011;8901;52.088;5.084;2022-08-19T13:01:14;7.45;;;5.22;;
17566;SDS011;8901;52.088;5.084;2022-08-19T13:03:42;9.90;;;5.47;;
17566;SDS011;8901;52.088;5.084;2022-08-19T13:06:12;9.90;;;6.72;;
17566;SDS011;8901;52.088;5.084;2022-08-19T13:08:40;7.85;;;5.78;;
17566;SDS011;8901;52.088;5.084;2022-08-19T13:11:09;8.07;;;5.47;;
17566;SDS011;8901;52.088;5.084;2022-08-19T13:13:37;7.93;;;5.45;;
17566;SDS011;8901;52.088;5.084;2022-08-19T13:16:06;7.25;;;5.60;;
17566;SDS011;8901;52.088;5.084;2022-08-19T13:18:33;6.53;;;5.13;;
17566;SDS011;8901;52.088;5.084;2022-08-19T13:21:02;7.93;;;5.05;;
17566;SDS011;8901;52.088;5.084;2022-08-19T13:23:31;8.23;;;5.28;;
17566;SDS011;8901;52.088;5.084;2022-08-19T13:25:59;6.38;;;5.05;;
17566;SDS011;8901;52.088;5.084;2022-08-19T13:28:28;5.53;;;4.65;;
17566;SDS011;8901;52.088;5.084;2022-08-19T13:31:15;5.80;;;4.72;;
17566;SDS011;8901;52.088;5.084;2022-08-19T13:34:01;5.93;;;4.30;;
17566;SDS011;8901;52.088;5.084;2022-08-19T13:36:28;4.43;;;4.03;;
17566;SDS011;8901;52.088;5.084;2022-08-19T13:38:57;5.55;;;4.35;;
17566;SDS011;8901;52.088;5.084;2022-08-19T13:41:23;8.93;;;5.05;;
17566;SDS011;8901;52.088;5.084;2022-08-19T13:43:51;8.15;;;4.57;;
17566;SDS011;8901;52.088;5.084;2022-08-19T13:46:19;5.10;;;4.38;;
17566;SDS011;8901;52.088;5.084;2022-08-19T13:48:46;4.20;;;3.80;;
17566;SDS011;8901;52.088;5.084;2022-08-19T13:51:13;7.70;;;4.70;;
17566;SDS011;8901;52.088;5.084;2022-08-19T13:53:41;6.53;;;5.53;;
17566;SDS011;8901;52.088;5.084;2022-08-19T13:56:11;5.38;;;4.78;;
17566;SDS011;8901;52.088;5.084;2022-08-19T13:58:40;6.75;;;5.28;;
17566;SDS011;8901;52.088;5.084;2022-08-19T14:01:07;6.20;;;4.45;;
17566;SDS011;8901;52.088;5.084;2022-08-19T14:03:34;4.88;;;4.38;;
17566;SDS011;8901;52.088;5.084;2022-08-19T14:06:02;5.68;;;4.32;;
17566;SDS011;8901;52.088;5.084;2022-08-19T14:08:29;4.38;;;3.97;;
17566;SDS011;8901;52.088;5.084;2022-08-19T14:10:57;5.68;;;4.15;;
17566;SDS011;8901;52.088;5.084;2022-08-19T14:13:25;4.60;;;4.07;;
17566;SDS011;8901;52.088;5.084;2022-08-19T14:15:52;4.10;;;3.70;;
17566;SDS011;8901;52.088;5.084;2022-08-19T14:18:19;7.13;;;4.05;;
17566;SDS011;8901;52.088;5.084;2022-08-19T14:20:46;4.93;;;3.50;;
17566;SDS011;8901;52.088;5.084;2022-08-19T14:23:13;7.55;;;3.75;;
17566;SDS011;8901;52.088;5.084;2022-08-19T14:25:40;4.97;;;3.70;;
17566;SDS011;8901;52.088;5.084;2022-08-19T14:28:09;4.03;;;3.65;;
17566;SDS011;8901;52.088;5.084;2022-08-19T14:30:37;3.95;;;3.65;;
17566;SDS011;8901;52.088;5.084;2022-08-19T14:33:04;4.65;;;4.15;;
17566;SDS011;8901;52.088;5.084;2022-08-19T14:35:33;4.38;;;3.97;;
17566;SDS011;8901;52.088;5.084;2022-08-19T14:38:01;4.43;;;3.92;;
17566;SDS011;8901;52.088;5.084;2022-08-19T14:40:29;4.10;;;3.70;;
17566;SDS011;8901;52.088;5.084;2022-08-19T14:42:58;6.68;;;4.20;;
17566;SDS011;8901;52.088;5.084;2022-08-19T14:45:28;4.05;;;3.65;;
17566;SDS011;8901;52.088;5.084;2022-08-19T14:51:06;4.00;;;3.60;;
17566;SDS011;8901;52.088;5.084;2022-08-19T14:53:33;6.90;;;3.90;;
17566;SDS011;8901;52.088;5.084;2022-08-19T14:56:10;8.73;;;4.40;;
17566;SDS011;8901;52.088;5.084;2022-08-19T14:58:38;6.68;;;4.28;;
17566;SDS011;8901;52.088;5.084;2022-08-19T15:01:06;5.72;;;5.00;;
17566;SDS011;8901;52.088;5.084;2022-08-19T15:03:36;5.63;;;5.13;;
17566;SDS011;8901;52.088;5.084;2022-08-19T15:06:07;4.97;;;4.40;;
17566;SDS011;8901;52.088;5.084;2022-08-19T15:08:35;8.18;;;5.13;;
17566;SDS011;8901;52.088;5.084;2022-08-19T15:11:07;8.18;;;5.20;;
17566;SDS011;8901;52.088;5.084;2022-08-19T15:13:35;6.32;;;5.10;;
17566;SDS011;8901;52.088;5.084;2022-08-19T15:16:04;7.40;;;4.82;;
17566;SDS011;8901;52.088;5.084;2022-08-19T15:18:31;5.97;;;4.95;;
17566;SDS011;8901;52.088;5.084;2022-08-19T15:21:00;7.68;;;4.82;;
17566;SDS011;8901;52.088;5.084;2022-08-19T15:23:30;11.05;;;5.63;;
17566;SDS011;8901;52.088;5.084;2022-08-19T15:25:57;7.63;;;5.72;;
17566;SDS011;8901;52.088;5.084;2022-08-19T15:28:24;7.15;;;4.38;;
17566;SDS011;8901;52.088;5.084;2022-08-19T15:30:51;7.43;;;4.90;;
17566;SDS011;8901;52.088;5.084;2022-08-19T15:33:19;6.72;;;5.55;;
17566;SDS011;8901;52.088;5.084;2022-08-19T15:35:46;9.45;;;6.07;;
17566;SDS011;8901;52.088;5.084;2022-08-19T15:38:16;6.72;;;6.03;;
17566;SDS011;8901;52.088;5.084;2022-08-19T15:40:47;7.60;;;6.15;;
17566;SDS011;8901;52.088;5.084;2022-08-19T15:43:14;6.63;;;5.90;;
17566;SDS011;8901;52.088;5.084;2022-08-19T15:45:43;6.18;;;5.45;;
17566;SDS011;8901;52.088;5.084;2022-08-19T15:48:10;7.97;;;5.47;;
17566;SDS011;8901;52.088;5.084;2022-08-19T15:50:45;7.75;;;5.95;;
17566;SDS011;8901;52.088;5.084;2022-08-19T15:53:12;6.10;;;4.50;;
17566;SDS011;8901;52.088;5.084;2022-08-19T15:58:27;5.07;;;4.15;;
17566;SDS011;8901;52.088;5.084;2022-08-19T16:01:12;5.28;;;3.80;;
17566;SDS011;8901;52.088;5.084;2022-08-19T16:03:59;5.20;;;3.47;;
17566;SDS011;8901;52.088;5.084;2022-08-19T16:06:45;5.43;;;3.78;;
17566;SDS011;8901;52.088;5.084;2022-08-19T16:09:14;4.35;;;3.13;;
17566;SDS011;8901;52.088;5.084;2022-08-19T16:11:45;5.15;;;3.45;;
17566;SDS011;8901;52.088;5.084;2022-08-19T16:14:12;4.78;;;3.30;;
17566;SDS011;8901;52.088;5.084;2022-08-19T16:16:39;5.28;;;3.65;;
17566;SDS011;8901;52.088;5.084;2022-08-19T16:19:10;4.70;;;3.40;;
17566;SDS011;8901;52.088;5.084;2022-08-19T16:21:41;5.43;;;3.42;;
17566;SDS011;8901;52.088;5.084;2022-08-19T16:24:09;4.75;;;3.60;;
17566;SDS011;8901;52.088;5.084;2022-08-19T16:26:38;4.75;;;3.35;;
17566;SDS011;8901;52.088;5.084;2022-08-19T16:29:06;6.40;;;3.90;;
17566;SDS011;8901;52.088;5.084;2022-08-19T16:31:34;8.80;;;4.47;;
17566;SDS011;8901;52.088;5.084;2022-08-19T16:34:01;9.15;;;4.30;;
17566;SDS011;8901;52.088;5.084;2022-08-19T16:36:31;7.28;;;5.13;;
17566;SDS011;8901;52.088;5.084;2022-08-19T16:38:59;10.18;;;6.18;;
17566;SDS011;8901;52.088;5.084;2022-08-19T16:41:27;10.30;;;5.90;;
17566;SDS011;8901;52.088;5.084;2022-08-19T16:47:04;7.03;;;4.45;;
17566;SDS011;8901;52.088;5.084;2022-08-19T16:49:32;6.35;;;4.65;;
17566;SDS011;8901;52.088;5.084;2022-08-19T16:51:59;7.00;;;4.43;;
17566;SDS011;8901;52.088;5.084;2022-08-19T16:54:26;9.57;;;4.47;;
17566;SDS011;8901;52.088;5.084;2022-08-19T16:56:53;8.00;;;4.93;;
17566;SDS011;8901;52.088;5.084;2022-08-19T16:59:20;9.88;;;5.20;;
17566;SDS011;8901;52.088;5.084;2022-08-19T17:01:48;6.03;;;4.13;;
17566;SDS011;8901;52.088;5.084;2022-08-19T17:04:17;5.50;;;3.97;;
17566;SDS011;8901;52.088;5.084;2022-08-19T17:06:44;4.75;;;3.30;;
17566;SDS011;8901;52.088;5.084;2022-08-19T17:09:11;6.00;;;3.08;;
17566;SDS011;8901;52.088;5.084;2022-08-19T17:11:40;4.20;;;2.50;;
17566;SDS011;8901;52.088;5.084;2022-08-19T17:14:06;5.47;;;2.40;;
17566;SDS011;8901;52.088;5.084;2022-08-19T17:16:34;3.80;;;2.08;;
17566;SDS011;8901;52.088;5.084;2022-08-19T17:19:04;2.28;;;1.85;;
17566;SDS011;8901;52.088;5.084;2022-08-19T17:21:35;5.05;;;2.25;;
17566;SDS011;8901;52.088;5.084;2022-08-19T17:24:04;4.40;;;2.25;;
17566;SDS011;8901;52.088;5.084;2022-08-19T17:26:33;2.95;;;1.70;;
17566;SDS011;8901;52.088;5.084;2022-08-19T17:29:02;2.00;;;1.65;;
17566;SDS011;8901;52.088;5.084;2022-08-19T17:31:30;3.40;;;1.70;;
17566;SDS011;8901;52.088;5.084;2022-08-19T17:33:58;3.00;;;1.73;;
17566;SDS011;8901;52.088;5.084;2022-08-19T17:36:26;4.93;;;1.88;;
17566;SDS011;8901;52.088;5.084;2022-08-19T17:38:56;2.10;;;1.55;;
17566;SDS011;8901;52.088;5.084;2022-08-19T17:41:26;3.22;;;1.80;;
17566;SDS011;8901;52.088;5.084;2022-08-19T17:43:55;2.38;;;1.73;;
17566;SDS011;8901;52.088;5.084;2022-08-19T17:46:22;3.53;;;1.80;;
17566;SDS011;8901;52.088;5.084;2022-08-19T17:48:50;1.70;;;1.60;;
17566;SDS011;8901;52.088;5.084;2022-08-19T17:51:19;1.70;;;1.60;;
17566;SDS011;8901;52.088;5.084;2022-08-19T17:53:48;3.50;;;1.80;;
17566;SDS011;8901;52.088;5.084;2022-08-19T17:56:17;2.33;;;1.60;;
17566;SDS011;8901;52.088;5.084;2022-08-19T17:58:44;2.25;;;1.70;;
17566;SDS011;8901;52.088;5.084;2022-08-19T18:01:12;1.98;;;1.73;;
17566;SDS011;8901;52.088;5.084;2022-08-19T18:03:40;1.75;;;1.65;;
17566;SDS011;8901;52.088;5.084;2022-08-19T18:06:07;2.20;;;1.65;;
17566;SDS011;8901;52.088;5.084;2022-08-19T18:08:35;2.33;;;1.65;;
17566;SDS011;8901;52.088;5.084;2022-08-19T18:11:03;2.03;;;1.70;;
17566;SDS011;8901;52.088;5.084;2022-08-19T18:13:33;2.38;;;1.80;;
17566;SDS011;8901;52.088;5.084;2022-08-19T18:16:00;2.55;;;1.85;;
17566;SDS011;8901;52.088;5.084;2022-08-19T18:18:28;2.35;;;1.70;;
17566;SDS011;8901;52.088;5.084;2022-08-19T18:20:55;1.60;;;1.50;;
17566;SDS011;8901;52.088;5.084;2022-08-19T18:23:22;1.95;;;1.60;;
17566;SDS011;8901;52.088;5.084;2022-08-19T18:25:49;4.05;;;2.30;;
17566;SDS011;8901;52.088;5.084;2022-08-19T18:28:18;2.42;;;1.67;;
17566;SDS011;8901;52.088;5.084;2022-08-19T18:30:50;2.67;;;1.83;;
17566;SDS011;8901;52.088;5.084;2022-08-19T18:33:19;2.05;;;1.50;;
17566;SDS011;8901;52.088;5.084;2022-08-19T18:35:49;1.73;;;1.60;;
17566;SDS011;8901;52.088;5.084;2022-08-19T18:38:17;2.22;;;1.80;;
17566;SDS011;8901;52.088;5.084;2022-08-19T18:41:04;1.50;;;1.40;;
17566;SDS011;8901;52.088;5.084;2022-08-19T18:43:54;1.75;;;1.50;;
17566;SDS011;8901;52.088;5.084;2022-08-19T18:46:39;2.08;;;1.50;;
17566;SDS011;8901;52.088;5.084;2022-08-19T18:49:33;2.88;;;1.85;;
17566;SDS011;8901;52.088;5.084;2022-08-19T18:54:41;2.38;;;1.88;;
17566;SDS011;8901;52.088;5.084;2022-08-19T18:57:10;2.70;;;1.70;;
17566;SDS011;8901;52.088;5.084;2022-08-19T18:59:52;1.98;;;1.60;;
17566;SDS011;8901;52.088;5.084;2022-08-19T19:02:21;2.58;;;1.52;;
17566;SDS011;8901;52.088;5.084;2022-08-19T19:04:49;3.08;;;1.50;;
17566;SDS011;8901;52.088;5.084;2022-08-19T19:07:16;2.67;;;1.90;;
17566;SDS011;8901;52.088;5.084;2022-08-19T19:09:44;2.53;;;2.10;;
17566;SDS011;8901;52.088;5.084;2022-08-19T19:12:11;4.25;;;2.10;;
17566;SDS011;8901;52.088;5.084;2022-08-19T19:14:39;2.53;;;2.33;;
17566;SDS011;8901;52.088;5.084;2022-08-19T19:17:12;4.72;;;2.78;;
17566;SDS011;8901;52.088;5.084;2022-08-19T19:19:42;4.10;;;3.03;;
17566;SDS011;8901;52.088;5.084;2022-08-19T19:22:10;5.03;;;3.08;;
17566;SDS011;8901;52.088;5.084;2022-08-19T19:24:39;3.17;;;2.70;;
17566;SDS011;8901;52.088;5.084;2022-08-19T19:27:09;4.63;;;3.20;;
17566;SDS011;8901;52.088;5.084;2022-08-19T19:29:37;3.15;;;2.85;;
17566;SDS011;8901;52.088;5.084;2022-08-19T19:32:05;4.15;;;3.05;;
17566;SDS011;8901;52.088;5.084;2022-08-19T19:34:35;4.82;;;3.63;;
17566;SDS011;8901;52.088;5.084;2022-08-19T19:37:04;5.50;;;3.90;;
17566;SDS011;8901;52.088;5.084;2022-08-19T19:39:31;4.90;;;3.67;;
17566;SDS011;8901;52.088;5.084;2022-08-19T19:41:59;5.88;;;4.07;;
17566;SDS011;8901;52.088;5.084;2022-08-19T19:44:26;5.55;;;3.80;;
17566;SDS011;8901;52.088;5.084;2022-08-19T19:46:53;3.80;;;3.05;;
17566;SDS011;8901;52.088;5.084;2022-08-19T19:49:23;4.28;;;3.88;;
17566;SDS011;8901;52.088;5.084;2022-08-19T19:51:51;5.50;;;4.38;;
17566;SDS011;8901;52.088;5.084;2022-08-19T19:54:19;4.22;;;3.70;;
17566;SDS011;8901;52.088;5.084;2022-08-19T19:56:46;4.95;;;4.43;;
17566;SDS011;8901;52.088;5.084;2022-08-19T19:59:14;6.38;;;4.70;;
17566;SDS011;8901;52.088;5.084;2022-08-19T20:01:42;7.05;;;4.70;;
17566;SDS011;8901;52.088;5.084;2022-08-19T20:04:10;5.57;;;5.07;;
17566;SDS011;8901;52.088;5.084;2022-08-19T20:06:37;6.82;;;4.70;;
17566;SDS011;8901;52.088;5.084;2022-08-19T20:09:04;6.97;;;4.35;;
17566;SDS011;8901;52.088;5.084;2022-08-19T20:14:30;6.95;;;4.75;;
17566;SDS011;8901;52.088;5.084;2022-08-19T20:17:15;6.03;;;4.20;;
17566;SDS011;8901;52.088;5.084;2022-08-19T20:19:44;6.22;;;4.50;;
17566;SDS011;8901;52.088;5.084;2022-08-19T20:22:11;6.30;;;5.18;;
17566;SDS011;8901;52.088;5.084;2022-08-19T20:24:38;6.88;;;5.53;;
17566;SDS011;8901;52.088;5.084;2022-08-19T20:27:07;7.38;;;5.35;;
17566;SDS011;8901;52.088;5.084;2022-08-19T20:29:35;5.13;;;4.03;;
17566;SDS011;8901;52.088;5.084;2022-08-19T20:32:02;7.68;;;5.53;;
17566;SDS011;8901;52.088;5.084;2022-08-19T20:34:29;8.27;;;5.50;;
17566;SDS011;8901;52.088;5.084;2022-08-19T20:36:57;7.70;;;6.13;;
17566;SDS011;8901;52.088;5.084;2022-08-19T20:42:16;6.45;;;5.60;;
17566;SDS011;8901;52.088;5.084;2022-08-19T20:44:44;9.05;;;5.57;;
17566;SDS011;8901;52.088;5.084;2022-08-19T20:47:11;6.72;;;5.65;;
17566;SDS011;8901;52.088;5.084;2022-08-19T20:49:38;9.20;;;5.20;;
17566;SDS011;8901;52.088;5.084;2022-08-19T20:52:05;10.20;;;5.70;;
17566;SDS011;8901;52.088;5.084;2022-08-19T20:54:32;5.57;;;4.32;;
17566;SDS011;8901;52.088;5.084;2022-08-19T20:56:59;6.07;;;4.75;;
17566;SDS011;8901;52.088;5.084;2022-08-19T20:59:29;10.35;;;6.25;;
17566;SDS011;8901;52.088;5.084;2022-08-19T21:01:55;7.85;;;6.00;;
17566;SDS011;8901;52.088;5.084;2022-08-19T21:04:22;8.20;;;5.85;;
17566;SDS011;8901;52.088;5.084;2022-08-19T21:06:50;8.00;;;5.80;;
17566;SDS011;8901;52.088;5.084;2022-08-19T21:09:17;8.90;;;6.28;;
17566;SDS011;8901;52.088;5.084;2022-08-19T21:11:44;6.95;;;5.88;;
17566;SDS011;8901;52.088;5.084;2022-08-19T21:14:10;7.28;;;5.95;;
17566;SDS011;8901;52.088;5.084;2022-08-19T21:16:39;7.57;;;5.55;;
17566;SDS011;8901;52.088;5.084;2022-08-19T21:19:06;7.78;;;5.30;;
17566;SDS011;8901;52.088;5.084;2022-08-19T21:21:34;8.23;;;5.80;;
17566;SDS011;8901;52.088;5.084;2022-08-19T21:24:01;8.20;;;6.30;;
17566;SDS011;8901;52.088;5.084;2022-08-19T21:26:28;7.88;;;5.53;;
17566;SDS011;8901;52.088;5.084;2022-08-19T21:28:55;7.25;;;5.70;;
17566;SDS011;8901;52.088;5.084;2022-08-19T21:31:22;6.93;;;6.05;;
17566;SDS011;8901;52.088;5.084;2022-08-19T21:33:50;12.73;;;6.55;;
17566;SDS011;8901;52.088;5.084;2022-08-19T21:36:17;9.55;;;5.65;;
17566;SDS011;8901;52.088;5.084;2022-08-19T21:38:44;7.35;;;6.30;;
17566;SDS011;8901;52.088;5.084;2022-08-19T21:41:12;7.72;;;5.82;;
17566;SDS011;8901;52.088;5.084;2022-08-19T21:43:40;9.98;;;7.03;;
17566;SDS011;8901;52.088;5.084;2022-08-19T21:46:09;7.43;;;6.40;;
17566;SDS011;8901;52.088;5.084;2022-08-19T21:48:35;7.93;;;6.70;;
17566;SDS011;8901;52.088;5.084;2022-08-19T21:51:04;8.55;;;6.97;;
17566;SDS011;8901;52.088;5.084;2022-08-19T21:53:31;9.07;;;7.15;;
17566;SDS011;8901;52.088;5.084;2022-08-19T21:55:58;10.05;;;6.45;;
17566;SDS011;8901;52.088;5.084;2022-08-19T21:58:25;9.48;;;7.13;;
17566;SDS011;8901;52.088;5.084;2022-08-19T22:00:52;8.68;;;6.65;;
17566;SDS011;8901;52.088;5.084;2022-08-19T22:03:19;7.70;;;6.15;;
17566;SDS011;8901;52.088;5.084;2022-08-19T22:05:46;8.20;;;6.05;;
17566;SDS011;8901;52.088;5.084;2022-08-19T22:08:14;11.80;;;7.05;;
17566;SDS011;8901;52.088;5.084;2022-08-19T22:10:41;9.98;;;6.15;;
17566;SDS011;8901;52.088;5.084;2022-08-19T22:13:08;9.93;;;6.25;;
17566;SDS011;8901;52.088;5.084;2022-08-19T22:15:35;8.30;;;5.95;;
17566;SDS011;8901;52.088;5.084;2022-08-19T22:18:02;9.35;;;5.60;;